Time;durP1;ratioP1;P1;durP2;ratioP2;P2;SDS_P1;SDS_P2;PMS_P1;PMS_P2;Temp;Humidity;BMP_temperature;BMP_pressure;BME280_temperature;BME280_humidity;BME280_pressure;Samples;Min_cycle;Max_cycle;Signal;HPM_P1;HPM_P2
2022/08/17 00:02:16;;;;;;;20.83;10.20;;;;;;;23.91;75.05;100541.72;5045060;28;20052;-75
2022/08/17 00:04:52;;;;;;;22.85;10.73;;;;;;;23.93;74.70;100539.19;5046560;28;20126;-75
2022/08/17 00:07:19;;;;;;;17.88;11.13;;;;;;;23.93;74.65;100542.03;5048623;28;20057;-75
2022/08/17 00:09:45;;;;;;;18.10;11.15;;;;;;;23.96;74.49;100537.44;5048824;28;20697;-77
2022/08/17 00:12:12;;;;;;;16.77;10.82;;;;;;;23.98;74.32;100537.72;5041437;28;20056;-75
2022/08/17 00:14:58;;;;;;;17.85;11.38;;;;;;;23.97;74.04;100536.97;5046542;28;20778;-76
2022/08/17 00:17:25;;;;;;;21.67;11.63;;;;;;;23.96;73.82;100534.63;5048865;28;20044;-76
2022/08/17 00:19:51;;;;;;;17.95;10.32;;;;;;;23.95;75.01;100530.22;5035977;28;20051;-77
2022/08/17 00:22:18;;;;;;;20.08;9.95;;;;;;;23.93;75.42;100533.53;5045681;28;20526;-75
2022/08/17 00:25:05;;;;;;;18.70;10.07;;;;;;;23.90;75.77;100528.88;5043604;28;20048;-75
2022/08/17 00:27:32;;;;;;;17.25;9.25;;;;;;;23.88;76.50;100525.75;5042914;28;20091;-75
2022/08/17 00:29:59;;;;;;;17.20;9.75;;;;;;;23.87;76.55;100532.69;5050266;28;20053;-76
2022/08/17 00:32:25;;;;;;;21.92;12.18;;;;;;;23.84;76.01;100530.84;5045287;28;20151;-76
2022/08/17 00:35:18;;;;;;;21.63;10.23;;;;;;;23.80;77.20;100523.84;5048754;28;20060;-77
2022/08/17 00:37:44;;;;;;;21.65;10.40;;;;;;;23.77;77.51;100525.59;5045986;28;20501;-76
2022/08/17 00:40:13;;;;;;;18.13;11.20;;;;;;;23.75;77.13;100522.47;5049593;28;20160;-77
2022/08/17 00:42:42;;;;;;;19.20;11.40;;;;;;;23.71;77.67;100518.31;5051486;28;20059;-76
2022/08/17 00:45:12;;;;;;;18.80;10.98;;;;;;;23.72;77.42;100520.63;5054359;28;20171;-76
2022/08/17 00:47:39;;;;;;;18.67;11.43;;;;;;;23.66;77.46;100510.53;5046828;28;20424;-76
2022/08/17 00:50:11;;;;;;;18.80;11.10;;;;;;;23.69;77.66;100518.78;5050020;28;20618;-76
2022/08/17 00:52:53;;;;;;;21.55;11.50;;;;;;;23.67;77.84;100512.09;5046659;28;20048;-73
2022/08/17 00:55:22;;;;;;;19.23;11.43;;;;;;;23.62;78.54;100510.72;5048868;28;20055;-77
2022/08/17 00:57:55;;;;;;;18.80;11.02;;;;;;;23.56;78.41;100509.91;5047344;28;20048;-76
2022/08/17 01:00:28;;;;;;;18.08;10.35;;;;;;;23.54;79.68;100514.47;5050330;28;20159;-77
2022/08/17 01:03:02;;;;;;;16.90;10.98;;;;;;;23.49;80.00;100512.34;5048700;28;20875;-77
2022/08/17 01:05:31;;;;;;;21.35;11.30;;;;;;;23.47;79.94;100498.72;5046213;28;20873;-76
2022/08/17 01:08:01;;;;;;;18.20;11.15;;;;;;;23.50;80.20;100502.59;5052568;28;20056;-73
2022/08/17 01:10:52;;;;;;;17.40;10.88;;;;;;;23.44;81.85;100505.34;5069600;28;20045;-75
2022/08/17 01:13:30;;;;;;;18.77;10.05;;;;;;;23.39;81.83;100503.19;5069875;28;20048;-76
2022/08/17 01:16:07;;;;;;;17.13;11.05;;;;;;;23.35;82.23;100502.63;5069693;28;20060;-75
2022/08/17 01:18:34;;;;;;;16.15;10.45;;;;;;;23.33;81.39;100510.03;5069374;28;20044;-74
2022/08/17 01:21:06;;;;;;;17.00;11.05;;;;;;;23.30;82.23;100506.16;5069114;28;20135;-75
2022/08/17 01:23:33;;;;;;;18.77;11.25;;;;;;;23.28;82.63;100500.19;5063902;28;20056;-76
2022/08/17 01:26:01;;;;;;;19.40;11.13;;;;;;;23.26;82.71;100494.28;5070758;28;20055;-75
2022/08/17 01:28:31;;;;;;;18.20;10.50;;;;;;;23.20;83.15;100499.03;5069821;28;20519;-75
2022/08/17 01:31:18;;;;;;;21.05;11.35;;;;;;;23.16;84.06;100500.50;5067969;28;20048;-76
2022/08/17 01:33:44;;;;;;;18.95;11.25;;;;;;;23.09;84.60;100504.50;5069163;28;20831;-74
2022/08/17 01:36:11;;;;;;;18.25;11.45;;;;;;;23.04;84.11;100508.00;5068329;28;20052;-74
2022/08/17 01:38:38;;;;;;;18.20;10.57;;;;;;;22.97;85.27;100508.38;5068573;28;20045;-75
2022/08/17 01:41:11;;;;;;;18.40;11.73;;;;;;;22.96;85.61;100503.22;5068938;28;20059;-72
2022/08/17 01:43:46;;;;;;;18.00;11.45;;;;;;;22.90;86.27;100497.50;5068899;28;20178;-75
2022/08/17 01:46:19;;;;;;;21.20;11.52;;;;;;;22.86;86.93;100496.91;5067522;28;20059;-75
2022/08/17 01:48:46;;;;;;;18.70;11.45;;;;;;;22.83;87.12;100499.91;5064782;28;20459;-75
2022/08/17 01:51:14;;;;;;;20.67;10.65;;;;;;;22.81;86.25;100499.66;5068276;28;20044;-75
2022/08/17 01:53:47;;;;;;;21.63;11.32;;;;;;;22.73;87.74;100496.44;5069656;28;20048;-72
2022/08/17 01:56:17;;;;;;;19.20;11.35;;;;;;;22.66;88.08;100489.13;5069122;28;20078;-75
2022/08/17 01:58:44;;;;;;;17.83;11.13;;;;;;;22.65;87.82;100487.56;5069367;28;20497;-74
2022/08/17 02:01:13;;;;;;;19.50;11.63;;;;;;;22.61;88.35;100494.66;5068802;28;20059;-75
2022/08/17 02:03:40;;;;;;;17.85;11.02;;;;;;;22.57;89.58;100489.22;5067243;28;20045;-74
2022/08/17 02:06:24;;;;;;;18.15;10.93;;;;;;;22.53;89.04;100488.63;5065641;28;20127;-75
2022/08/17 02:08:54;;;;;;;17.90;11.43;;;;;;;22.49;89.82;100499.34;5069257;28;20052;-74
2022/08/17 02:11:29;;;;;;;;;;;;;;;22.45;91.84;100492.28;5069148;28;20056;-75
2022/08/17 02:13:57;;;;;;;18.48;12.27;;;;;;;22.43;91.15;100500.44;5067505;28;19927;-76
2022/08/17 02:16:30;;;;;;;20.85;12.18;;;;;;;22.42;91.46;100493.25;5069469;28;20053;-76
2022/08/17 02:19:06;;;;;;;20.20;11.73;;;;;;;22.36;91.87;100493.16;5068779;28;20520;-75
2022/08/17 02:21:34;;;;;;;19.35;11.90;;;;;;;22.31;91.46;100487.41;5068082;28;20214;-76
2022/08/17 02:24:02;;;;;;;18.67;12.40;;;;;;;22.29;92.42;100498.38;5069399;28;20720;-75
2022/08/17 02:26:28;;;;;;;23.17;12.57;;;;;;;22.25;92.53;100489.34;5066705;28;20526;-75
2022/08/17 02:28:55;;;;;;;18.65;12.30;;;;;;;22.24;93.19;100499.06;5069548;28;20048;-74
2022/08/17 02:31:21;;;;;;;21.52;12.25;;;;;;;22.22;92.57;100493.91;5067942;28;20448;-75
2022/08/17 02:33:48;;;;;;;19.98;11.60;;;;;;;22.20;93.46;100492.81;5066150;28;20082;-75
2022/08/17 02:36:33;;;;;;;18.17;12.18;;;;;;;22.19;93.78;100491.25;5068833;28;20053;-75
2022/08/17 02:39:03;;;;;;;21.60;11.98;;;;;;;22.19;93.44;100489.22;5068288;28;20052;-76
2022/08/17 02:41:30;;;;;;;20.27;11.90;;;;;;;22.17;94.05;100488.16;5068333;28;20054;-76
2022/08/17 02:43:57;;;;;;;19.15;12.60;;;;;;;22.13;94.25;100487.53;5067463;28;20051;-75
2022/08/17 02:46:24;;;;;;;22.73;13.13;;;;;;;22.12;94.46;100486.00;5067665;28;20703;-75
2022/08/17 02:48:51;;;;;;;20.85;12.45;;;;;;;22.11;94.67;100490.06;5067275;28;20058;-75
2022/08/17 02:51:17;;;;;;;19.92;14.00;;;;;;;22.09;94.64;100486.94;5067460;28;20066;-75
2022/08/17 02:53:43;;;;;;;21.98;14.02;;;;;;;22.02;94.52;100485.28;5068680;28;20052;-72
2022/08/17 02:56:10;;;;;;;20.35;13.75;;;;;;;21.99;95.00;100488.28;5062173;28;20167;-75
2022/08/17 02:58:36;;;;;;;20.60;13.05;;;;;;;21.93;95.41;100481.75;5068082;28;20130;-74
2022/08/17 03:01:07;;;;;;;20.77;13.13;;;;;;;21.91;96.41;100489.91;5066655;28;20048;-74
2022/08/17 03:03:35;;;;;;;23.60;13.52;;;;;;;21.87;96.20;100492.13;5068155;28;20135;-75
2022/08/17 03:06:03;;;;;;;20.02;13.10;;;;;;;21.85;96.72;100483.38;5065592;28;20048;-74
2022/08/17 03:08:30;;;;;;;18.45;12.57;;;;;;;21.80;95.88;100476.34;5066725;28;20820;-75
2022/08/17 03:10:57;;;;;;;20.98;13.38;;;;;;;21.78;97.15;100483.75;5067452;28;20045;-74
2022/08/17 03:13:23;;;;;;;19.90;12.45;;;;;;;21.69;96.68;100486.56;5068499;28;20132;-75
2022/08/17 03:15:50;;;;;;;20.60;13.20;;;;;;;21.63;98.11;100478.00;5068426;28;20139;-75
2022/08/17 03:18:20;;;;;;;24.73;13.68;;;;;;;21.69;97.70;100486.56;5067779;28;20144;-74
2022/08/17 03:20:57;;;;;;;24.40;13.93;;;;;;;21.70;98.50;100479.69;5068035;28;20050;-75
2022/08/17 03:23:25;;;;;;;24.52;12.95;;;;;;;21.70;97.13;100482.50;5066664;28;20075;-75
2022/08/17 03:25:53;;;;;;;19.02;12.95;;;;;;;21.67;98.50;100478.59;5068372;28;20044;-74
2022/08/17 03:28:20;;;;;;;20.25;13.98;;;;;;;21.63;97.98;100480.06;5068074;28;20139;-75
2022/08/17 03:30:47;;;;;;;20.88;13.63;;;;;;;21.59;97.58;100479.44;5068026;28;20059;-75
2022/08/17 03:33:15;;;;;;;22.05;14.23;;;;;;;21.53;98.86;100482.13;5060412;28;20094;-75
2022/08/17 03:35:42;;;;;;;20.67;13.48;;;;;;;21.52;100.00;100474.94;5065749;28;20093;-75
2022/08/17 03:38:10;;;;;;;20.92;13.07;;;;;;;21.53;99.21;100482.13;5066632;28;20493;-75
2022/08/17 03:40:37;;;;;;;19.90;13.45;;;;;;;21.54;99.51;100480.09;5067796;28;20040;-75
2022/08/17 03:43:25;;;;;;;21.58;13.85;;;;;;;21.50;99.38;100480.25;5067816;28;20061;-75
2022/08/17 03:57:11;;;;;;;24.00;15.35;;;;;;;21.32;100.00;100480.38;5065012;28;20139;-75
2022/08/17 03:59:38;;;;;;;23.30;15.48;;;;;;;21.33;100.00;100481.16;5067191;28;20473;-75
2022/08/17 04:02:15;;;;;;;23.23;15.48;;;;;;;21.33;100.00;100483.97;5064440;28;20139;-74
2022/08/17 04:04:41;;;;;;;23.20;16.02;;;;;;;21.30;100.00;100482.09;5055972;28;20128;-75
2022/08/17 04:07:08;;;;;;;24.25;15.23;;;;;;;21.26;100.00;100487.88;5064215;28;20131;-74
2022/08/17 04:09:35;;;;;;;26.80;15.95;;;;;;;21.25;100.00;100480.72;5067435;28;20377;-75
2022/08/17 04:12:03;;;;;;;24.33;15.98;;;;;;;21.24;100.00;100486.81;5066004;28;20063;-75
2022/08/17 04:14:35;;;;;;;23.73;14.82;;;;;;;21.24;100.00;100489.63;5065885;28;20053;-75
2022/08/17 04:17:16;;;;;;;24.70;14.73;;;;;;;21.26;100.00;100484.31;5067047;28;20144;-75
2022/08/17 04:19:43;;;;;;;23.05;14.13;;;;;;;21.27;100.00;100486.66;5066089;28;20124;-74
2022/08/17 04:22:10;;;;;;;23.30;15.25;;;;;;;21.25;100.00;100499.63;5066125;28;20058;-76
2022/08/17 04:24:56;;;;;;;25.50;16.48;;;;;;;21.21;100.00;100502.63;5060503;28;20052;-74
2022/08/17 04:27:24;;;;;;;25.75;17.83;;;;;;;21.20;100.00;100501.06;5064541;28;20089;-76
2022/08/17 04:29:50;;;;;;;26.48;17.88;;;;;;;21.18;100.00;100499.97;5066766;28;20148;-75
2022/08/17 04:32:21;;;;;;;29.20;16.73;;;;;;;21.19;100.00;100501.53;5064704;28;20055;-74
2022/08/17 04:35:08;;;;;;;25.80;17.05;;;;;;;21.15;100.00;100498.09;5067706;28;20425;-75
2022/08/17 04:37:35;;;;;;;27.65;17.10;;;;;;;21.14;100.00;100505.78;5066689;28;20505;-74
2022/08/17 04:43:07;;;;;;;29.27;16.05;;;;;;;21.15;100.00;100503.72;5066380;28;20048;-75
2022/08/17 04:45:41;;;;;;;25.83;16.63;;;;;;;21.17;100.00;100518.09;5065690;28;20051;-75
2022/08/17 04:48:26;;;;;;;24.15;16.13;;;;;;;21.19;100.00;100515.59;5061955;28;20110;-75
2022/08/17 04:51:09;;;;;;;21.45;15.00;;;;;;;21.17;100.00;100515.28;5066197;28;20048;-72
2022/08/17 04:53:37;;;;;;;24.67;16.52;;;;;;;21.15;100.00;100517.78;5066759;28;20102;-75
2022/08/17 04:56:05;;;;;;;24.02;16.60;;;;;;;21.13;100.00;100512.63;5067084;28;20625;-76
2022/08/17 04:58:31;;;;;;;26.25;16.42;;;;;;;21.16;100.00;100510.94;5066063;28;20048;-75
2022/08/17 05:00:58;;;;;;;23.83;16.00;;;;;;;21.15;100.00;100514.97;5066501;28;20043;-75
2022/08/17 05:03:25;;;;;;;20.85;15.98;;;;;;;21.17;100.00;100518.91;5065998;28;20052;-73
2022/08/17 05:05:52;;;;;;;25.63;16.73;;;;;;;21.20;100.00;100520.75;5063533;28;20579;-75
2022/08/17 05:08:20;;;;;;;28.35;16.48;;;;;;;21.22;100.00;100520.25;5067448;28;20075;-75
2022/08/17 05:10:47;;;;;;;24.65;16.80;;;;;;;21.22;100.00;100528.72;5065961;28;20129;-74
2022/08/17 05:13:17;;;;;;;26.20;17.80;;;;;;;21.25;100.00;100524.94;5062169;28;20815;-75
2022/08/17 05:15:46;;;;;;;26.50;17.52;;;;;;;21.31;100.00;100523.06;5065700;28;20141;-75
2022/08/17 05:18:14;;;;;;;28.52;18.10;;;;;;;21.34;100.00;100528.53;5064856;28;20252;-74
2022/08/17 05:20:41;;;;;;;26.88;16.98;;;;;;;21.38;100.00;100531.16;5066867;28;20044;-75
2022/08/17 05:23:11;;;;;;;25.45;16.58;;;;;;;21.43;100.00;100534.09;5059772;28;20140;-73
2022/08/17 05:25:43;;;;;;;28.20;18.23;;;;;;;21.49;100.00;100535.00;5068812;28;20505;-75
2022/08/17 05:28:14;;;;;;;22.73;16.52;;;;;;;21.56;100.00;100539.53;5064090;28;20392;-75
2022/08/17 05:30:42;;;;;;;25.83;16.50;;;;;;;21.61;100.00;100527.59;5069625;28;20044;-75
2022/08/17 05:33:16;;;;;;;23.83;15.75;;;;;;;21.72;100.00;100533.50;5069229;28;20422;-74
2022/08/17 05:35:45;;;;;;;24.08;15.52;;;;;;;21.78;100.00;100534.44;5069714;28;20045;-75
2022/08/17 05:38:13;;;;;;;28.40;15.82;;;;;;;21.83;100.00;100533.75;5070174;28;20165;-74
2022/08/17 05:40:41;;;;;;;31.88;17.65;;;;;;;21.87;100.00;100529.50;5069262;28;20050;-75
2022/08/17 05:43:10;;;;;;;27.27;18.02;;;;;;;21.93;100.00;100526.81;5067136;28;20524;-72
2022/08/17 05:45:51;;;;;;;28.80;18.08;;;;;;;21.98;100.00;100529.78;5069864;28;20492;-72
2022/08/17 05:48:23;;;;;;;27.65;18.15;;;;;;;22.06;100.00;100522.50;5067372;28;20048;-74
2022/08/17 05:51:05;;;;;;;26.92;18.55;;;;;;;22.19;100.00;100522.25;5068628;28;20075;-75
2022/08/17 05:53:53;;;;;;;26.17;18.27;;;;;;;22.27;99.61;100527.03;5068933;28;20576;-76
2022/08/17 05:56:46;;;;;;;26.48;17.58;;;;;;;22.39;98.83;100523.19;5066884;28;20049;-76
2022/08/17 05:59:39;;;;;;;26.55;17.80;;;;;;;22.50;98.17;100517.78;5068034;28;20044;-71
2022/08/17 06:02:18;;;;;;;25.58;17.70;;;;;;;22.62;97.38;100508.28;5063964;28;20144;-71
2022/08/17 06:05:21;;;;;;;26.15;17.10;;;;;;;22.74;96.87;100506.44;5061102;28;20063;-71
2022/08/17 06:08:25;;;;;;;26.98;17.95;;;;;;;22.85;95.84;100508.69;5059682;28;20556;-71
2022/08/17 06:11:17;;;;;;;33.88;16.40;;;;;;;22.99;95.38;100505.88;5065346;28;20048;-71
2022/08/17 06:14:03;;;;;;;28.20;16.20;;;;;;;23.13;94.52;100507.91;5065274;28;20063;-72
2022/08/17 06:16:37;;;;;;;29.70;16.65;;;;;;;23.26;93.31;100505.59;5069227;28;20045;-70
2022/08/17 06:19:38;;;;;;;25.17;16.50;;;;;;;23.42;92.80;100507.09;5070677;28;20439;-70
2022/08/17 06:22:07;;;;;;;25.58;14.57;;;;;;;23.57;92.00;100514.28;5068537;28;20290;-71
2022/08/17 06:24:40;;;;;;;23.25;14.48;;;;;;;23.68;91.07;100503.13;5071647;28;20052;-70
2022/08/17 06:27:35;;;;;;;21.92;13.63;;;;;;;23.84;90.34;100502.59;5066812;28;20047;-70
2022/08/17 06:30:11;;;;;;;21.20;14.20;;;;;;;23.98;89.38;100507.41;5062217;28;20048;-72
2022/08/17 06:32:42;;;;;;;22.13;12.73;;;;;;;24.14;88.49;100503.25;5065621;28;20048;-71
2022/08/17 06:35:23;;;;;;;19.95;11.88;;;;;;;24.29;87.10;100504.72;5068709;28;20048;-70
2022/08/17 06:38:23;;;;;;;23.63;12.02;;;;;;;24.47;86.38;100503.66;5059199;28;20098;-75
2022/08/17 06:41:11;;;;;;;23.38;11.50;;;;;;;24.60;84.89;100504.81;5067744;28;20049;-71
2022/08/17 06:44:00;;;;;;;21.42;12.30;;;;;;;24.72;83.60;100502.91;5068127;28;20068;-72
2022/08/17 06:46:39;;;;;;;18.95;11.48;;;;;;;24.81;82.53;100506.34;5066951;28;20123;-73
2022/08/17 06:49:25;;;;;;;22.83;11.10;;;;;;;24.94;82.33;100505.97;5067897;28;20071;-71
2022/08/17 06:51:59;;;;;;;24.67;12.05;;;;;;;25.03;81.14;100503.72;5066490;28;20053;-72
2022/08/17 06:54:36;;;;;;;22.47;12.37;;;;;;;25.08;79.86;100502.97;5062408;28;20060;-70
2022/08/17 06:57:08;;;;;;;21.23;10.55;;;;;;;25.17;79.69;100506.91;5066877;28;20051;-70
2022/08/17 06:59:49;;;;;;;19.15;10.63;;;;;;;25.20;78.57;100503.84;5065390;28;20135;-70
2022/08/17 07:02:45;;;;;;;19.55;10.63;;;;;;;25.25;76.58;100508.00;5061872;28;20531;-71
2022/08/17 07:05:25;;;;;;;20.85;9.52;;;;;;;25.32;76.23;100504.75;5065771;28;20088;-72
2022/08/17 07:08:08;;;;;;;18.92;10.13;;;;;;;25.36;74.94;100508.09;5066155;28;20056;-71
2022/08/17 07:10:51;;;;;;;18.70;9.50;;;;;;;25.42;75.44;100511.75;5062165;28;20041;-72
2022/08/17 07:13:24;;;;;;;19.30;9.35;;;;;;;25.48;75.68;100510.50;5067326;28;20076;-71
2022/08/17 07:15:56;;;;;;;27.35;10.70;;;;;;;25.54;75.40;100507.75;5066280;28;20060;-72
2022/08/17 07:18:25;;;;;;;20.73;10.60;;;;;;;25.61;75.58;100512.94;5067604;28;20135;-71
2022/08/17 07:20:58;;;;;;;22.25;9.50;;;;;;;25.66;76.00;100512.19;5056236;28;20045;-72
2022/08/17 07:23:38;;;;;;;20.17;9.18;;;;;;;25.75;75.75;100518.41;5055642;28;20171;-72
2022/08/17 07:26:07;;;;;;;18.67;9.18;;;;;;;25.77;75.16;100520.75;5067060;28;20080;-73
2022/08/17 07:28:35;;;;;;;19.38;7.68;;;;;;;25.34;74.30;100556.75;5066894;28;20092;-74
2022/08/17 07:31:03;;;;;;;17.75;8.73;;;;;;;25.32;73.92;100550.84;5067340;28;20044;-72
2022/08/17 07:33:32;;;;;;;24.73;8.05;;;;;;;25.16;74.75;100559.94;5066733;28;20101;-74
2022/08/17 07:36:00;;;;;;;24.02;8.85;;;;;;;25.36;74.74;100550.59;5067771;28;20435;-75
2022/08/17 07:38:32;;;;;;;19.75;9.15;;;;;;;25.39;75.77;100563.75;5067459;28;20624;-78
2022/08/17 07:41:06;;;;;;;18.75;8.20;;;;;;;25.33;75.61;100565.75;5067010;28;20134;-78
2022/08/17 07:43:35;;;;;;;28.13;9.95;;;;;;;25.43;74.70;100569.97;5064790;28;20044;-75
2022/08/17 07:48:51;;;;;;;20.35;9.35;;;;;;;25.74;74.48;100567.13;5063391;28;20051;-73
2022/08/17 07:51:20;;;;;;;20.38;9.48;;;;;;;25.85;72.66;100565.09;5063191;28;20440;-74
2022/08/17 07:53:47;;;;;;;21.17;11.32;;;;;;;25.83;70.44;100561.25;5067606;28;20144;-72
2022/08/17 07:56:37;;;;;;;20.70;9.40;;;;;;;25.83;70.39;100569.75;5066093;28;20500;-74
2022/08/17 07:59:15;;;;;;;21.08;10.10;;;;;;;25.94;69.00;100572.63;5067455;28;20050;-74
2022/08/17 08:01:46;;;;;;;24.90;8.50;;;;;;;25.92;69.29;100578.06;5066584;28;20044;-74
2022/08/17 08:04:31;;;;;;;20.60;8.73;;;;;;;26.15;69.72;100576.94;5066433;28;20044;-72
2022/08/17 08:07:19;;;;;;;24.58;8.15;;;;;;;26.27;68.93;100572.84;5067241;28;20048;-74
2022/08/17 08:10:01;;;;;;;22.08;8.13;;;;;;;26.26;65.93;100576.97;5067154;28;20060;-72
2022/08/17 08:12:39;;;;;;;13.98;6.55;;;;;;;26.39;64.47;100582.97;5071206;28;20043;-74
2022/08/17 08:15:18;;;;;;;18.05;7.43;;;;;;;26.37;64.19;100572.13;5067246;28;20151;-77
2022/08/17 08:17:54;;;;;;;18.35;7.75;;;;;;;26.58;65.34;100572.72;5066964;28;20265;-76
2022/08/17 08:20:32;;;;;;;19.30;6.72;;;;;;;26.52;64.89;100569.09;5066053;28;20060;-74
2022/08/17 08:23:36;;;;;;;15.10;6.95;;;;;;;26.69;64.98;100578.47;5066449;28;20607;-74
2022/08/17 08:26:25;;;;;;;16.08;5.82;;;;;;;26.61;62.34;100577.41;5060858;28;20071;-73
2022/08/17 08:29:11;;;;;;;13.35;6.00;;;;;;;26.68;61.96;100576.91;5058551;28;20083;-73
2022/08/17 08:31:50;;;;;;;13.75;6.38;;;;;;;26.81;59.61;100571.53;5065718;28;20521;-73
2022/08/17 08:34:53;;;;;;;16.33;6.72;;;;;;;26.98;60.13;100561.75;5060099;28;20040;-76
2022/08/17 08:37:38;;;;;;;15.75;5.70;;;;;;;27.14;59.37;100560.22;5065033;28;20041;-76
2022/08/17 08:40:32;;;;;;;22.92;5.25;;;;;;;27.02;58.76;100556.59;5065786;28;20044;-77
2022/08/17 08:43:02;;;;;;;15.60;6.45;;;;;;;27.13;58.37;100564.38;5065746;28;20054;-76
2022/08/17 08:46:19;;;;;;;14.63;6.70;;;;;;;27.13;59.40;100564.38;5067183;28;20044;-77
2022/08/17 08:49:04;;;;;;;14.85;6.20;;;;;;;26.90;59.25;100565.63;5063964;28;20111;-74
2022/08/17 08:51:57;;;;;;;15.75;7.22;;;;;;;27.01;58.48;100565.63;5056333;28;20044;-73
2022/08/17 08:54:33;;;;;;;18.75;6.95;;;;;;;26.92;59.18;100566.66;5034705;28;20059;-76
2022/08/17 08:57:20;;;;;;;13.55;4.97;;;;;;;26.79;59.92;100565.56;5043335;28;20916;-74
2022/08/17 09:00:18;;;;;;;12.45;6.45;;;;;;;26.76;60.16;100572.31;5038798;28;20052;-73
2022/08/17 09:02:48;;;;;;;16.38;8.27;;;;;;;26.99;60.26;100559.69;5048552;28;20526;-73
2022/08/17 09:05:46;;;;;;;16.65;7.88;;;;;;;27.06;59.89;100559.97;5045911;28;20594;-73
2022/08/17 09:08:51;;;;;;;20.00;8.30;;;;;;;27.19;59.29;100562.28;5049623;28;20060;-74
2022/08/17 09:11:27;;;;;;;18.80;7.85;;;;;;;27.30;59.51;100557.41;5040786;28;20071;-73
2022/08/17 09:13:56;;;;;;;22.05;7.68;;;;;;;27.29;58.24;100558.72;5040393;28;20504;-75
2022/08/17 09:16:35;;;;;;;16.48;7.38;;;;;;;27.18;56.95;100557.91;5032559;28;20530;-74
2022/08/17 09:19:29;;;;;;;24.15;8.02;;;;;;;27.44;57.60;100555.63;5034722;28;20059;-74
2022/08/17 09:22:09;;;;;;;18.50;7.30;;;;;;;27.50;57.75;100561.31;5033286;28;20052;-73
2022/08/17 09:24:39;;;;;;;18.15;8.27;;;;;;;27.46;58.79;100560.78;5032251;28;20873;-74
2022/08/17 09:27:13;;;;;;;14.65;7.03;;;;;;;27.23;59.65;100577.81;5033641;28;20053;-74
2022/08/17 09:29:50;;;;;;;17.27;7.60;;;;;;;27.26;59.90;100576.00;5034093;28;20048;-73
2022/08/17 09:32:41;;;;;;;15.85;7.00;;;;;;;27.17;59.61;100579.09;5031338;28;20110;-74
2022/08/17 09:35:12;;;;;;;13.68;7.20;;;;;;;27.14;60.78;100572.34;5039049;28;20054;-71
2022/08/17 09:37:42;;;;;;;16.80;6.93;;;;;;;27.21;60.49;100569.03;5049717;28;20052;-71
2022/08/17 09:40:16;;;;;;;15.27;8.00;;;;;;;27.19;60.31;100565.91;5032506;28;20071;-70
2022/08/17 09:42:47;;;;;;;18.33;7.93;;;;;;;27.32;60.93;100568.25;5033897;28;20186;-71
2022/08/17 09:45:17;;;;;;;17.83;7.68;;;;;;;27.27;60.62;100569.81;5033948;28;20098;-71
2022/08/17 09:47:53;;;;;;;19.38;8.52;;;;;;;27.22;62.18;100569.78;5036479;28;20059;-70
2022/08/17 09:50:27;;;;;;;13.60;7.82;;;;;;;27.21;61.42;100574.69;5036065;28;20048;-70
2022/08/17 09:53:13;;;;;;;18.67;8.25;;;;;;;27.28;61.26;100562.84;5036078;28;20770;-73
2022/08/17 09:55:57;;;;;;;15.80;8.07;;;;;;;27.29;61.28;100560.78;5037954;28;20071;-70
2022/08/17 09:58:37;;;;;;;15.73;8.10;;;;;;;27.36;61.42;100568.78;5035659;28;20048;-71
2022/08/17 10:01:20;;;;;;;19.40;8.40;;;;;;;27.44;60.99;100558.47;5034555;28;20131;-71
2022/08/17 10:04:03;;;;;;;19.75;8.40;;;;;;;27.42;62.36;100546.84;5036164;28;20164;-72
2022/08/17 10:06:46;;;;;;;17.17;7.35;;;;;;;27.28;61.92;100559.22;5042687;28;20862;-72
2022/08/17 10:09:21;;;;;;;16.05;7.18;;;;;;;27.20;62.44;100558.19;5044090;28;20716;-70
2022/08/17 10:12:18;;;;;;;17.20;9.02;;;;;;;27.23;62.69;100557.16;5037499;28;20449;-69
2022/08/17 10:14:49;;;;;;;23.88;7.90;;;;;;;27.33;62.61;100561.28;5040930;28;20454;-69
2022/08/17 10:17:38;;;;;;;15.05;7.97;;;;;;;27.34;62.78;100560.78;5036154;28;20155;-72
2022/08/17 10:20:32;;;;;;;18.33;8.70;;;;;;;27.40;62.92;100566.44;5036099;28;20110;-73
2022/08/17 10:26:15;;;;;;;18.02;8.40;;;;;;;27.19;62.85;100570.81;5032914;28;20048;-72
2022/08/17 10:28:58;;;;;;;16.58;8.35;;;;;;;27.07;63.32;100570.03;5030590;28;20055;-71
2022/08/17 10:31:41;;;;;;;21.42;9.90;;;;;;;27.10;65.26;100580.34;5029768;28;20768;-71
2022/08/17 10:34:26;;;;;;;19.10;9.45;;;;;;;26.97;65.15;100579.31;5033306;28;20063;-71
2022/08/17 10:36:59;;;;;;;;;;;;;;;26.94;65.69;100581.13;5029659;28;20045;-72
2022/08/17 10:39:31;;;;;;;19.30;8.35;;;;;;;26.92;66.50;100589.38;5030803;28;20015;-70
2022/08/17 10:42:14;;;;;;;19.60;9.77;;;;;;;26.96;66.34;100591.94;5033566;28;20052;-71
2022/08/17 10:45:24;;;;;;;21.23;8.07;;;;;;;26.73;67.07;100593.94;5031518;28;20173;-71
2022/08/17 10:47:58;;;;;;;17.63;8.57;;;;;;;26.69;68.05;100599.09;5030387;28;20086;-72
2022/08/17 10:50:58;;;;;;;16.77;9.32;;;;;;;26.67;68.58;100606.59;5038577;28;20372;-71
2022/08/17 10:53:31;;;;;;;23.27;10.48;;;;;;;26.66;69.23;100602.97;5043159;28;20159;-72
2022/08/17 10:56:13;;;;;;;20.60;11.55;;;;;;;26.67;70.00;100607.38;5051744;28;20052;-72
2022/08/17 10:58:59;;;;;;;17.67;9.32;;;;;;;26.60;70.14;100604.22;5046615;28;20048;-73
2022/08/17 11:01:36;;;;;;;13.82;7.30;;;;;;;26.47;70.55;100607.50;5045412;28;20560;-72
2022/08/17 11:04:20;;;;;;;21.10;10.93;;;;;;;26.34;70.93;100603.56;5048323;28;20101;-73
2022/08/17 11:07:24;;;;;;;20.92;11.40;;;;;;;26.26;71.85;100608.19;5048990;28;20052;-73
2022/08/17 11:10:16;;;;;;;20.38;10.18;;;;;;;26.18;72.56;100610.72;5044496;28;20048;-72
2022/08/17 11:13:00;;;;;;;20.90;11.88;;;;;;;26.17;73.29;100616.88;5046152;28;20044;-73
2022/08/17 11:15:59;;;;;;;23.35;12.85;;;;;;;26.14;73.92;100606.56;5046712;28;20132;-72
2022/08/17 11:18:51;;;;;;;18.83;10.40;;;;;;;26.02;74.86;100614.22;5049204;28;20057;-72
2022/08/17 11:21:20;;;;;;;17.92;10.80;;;;;;;25.94;74.88;100620.81;5039485;28;20040;-70
2022/08/17 11:24:11;;;;;;;15.85;7.38;;;;;;;25.89;75.94;100615.91;5048619;28;20059;-70
2022/08/17 11:26:45;;;;;;;23.25;12.70;;;;;;;25.74;76.72;100606.78;5041980;28;20049;-71
2022/08/17 11:29:25;;;;;;;24.52;14.95;;;;;;;25.80;76.88;100616.88;5042339;28;20059;-71
2022/08/17 11:32:06;;;;;;;24.88;15.10;;;;;;;25.68;77.89;100617.31;5034611;28;20052;-71
2022/08/17 11:34:38;;;;;;;13.05;6.70;;;;;;;25.59;78.48;100621.09;5036977;28;20055;-70
2022/08/17 11:37:05;;;;;;;26.75;15.85;;;;;;;25.49;79.56;100624.59;5046325;28;20785;-70
2022/08/17 11:39:43;;;;;;;29.92;18.98;;;;;;;25.47;79.81;100618.69;5045379;28;20753;-72
2022/08/17 11:42:36;;;;;;;28.95;17.73;;;;;;;25.51;80.57;100625.66;5061430;28;20109;-72
2022/08/17 11:45:21;;;;;;;17.75;9.23;;;;;;;25.29;81.59;100616.16;5039498;28;20726;-73
2022/08/17 11:51:34;;;;;;;28.00;18.02;;;;;;;25.29;82.21;100619.78;5037857;28;20050;-72
2022/08/17 11:54:06;;;;;;;35.95;20.88;;;;;;;25.39;82.27;100617.56;5042049;28;20400;-71
2022/08/17 11:56:53;;;;;;;32.28;20.95;;;;;;;25.48;81.34;100614.56;5041628;28;20052;-73
2022/08/17 11:59:31;;;;;;;20.25;10.07;;;;;;;25.36;82.74;100624.22;5045687;28;20048;-74
2022/08/17 12:02:33;;;;;;;31.58;20.70;;;;;;;25.51;82.25;100614.31;5041513;28;20075;-73
2022/08/17 12:05:03;;;;;;;35.88;23.38;;;;;;;25.60;81.24;100619.03;5041707;28;20242;-73
2022/08/17 12:07:41;;;;;;;31.70;19.42;;;;;;;25.53;82.69;100628.78;5046284;28;20037;-73
2022/08/17 12:10:11;;;;;;;31.90;20.10;;;;;;;25.59;82.17;100634.47;5046853;28;20044;-74
2022/08/17 12:12:42;;;;;;;32.72;22.08;;;;;;;25.66;81.32;100623.47;5042398;28;20053;-75
2022/08/17 12:15:29;;;;;;;35.95;23.52;;;;;;;25.88;80.40;100614.38;5044351;28;20083;-82
2022/08/17 12:17:57;;;;;;;35.80;23.10;;;;;;;25.81;80.39;100618.44;5045864;28;20056;-75